createdAt,value
2023-02-06T00:01:26.999Z,59.48
2023-02-06T00:03:53.714Z,59.43
2023-02-06T00:06:20.366Z,59.57
2023-02-06T00:08:47.134Z,60.03
2023-02-06T00:11:16.752Z,60.37
2023-02-06T00:13:45.212Z,60.46
2023-02-06T00:16:26.592Z,61.06
2023-02-06T00:18:54.698Z,60.73
2023-02-06T00:21:24.558Z,60.67
2023-02-06T00:23:53.801Z,60.25
2023-02-06T00:26:20.799Z,60.06
2023-02-06T00:28:47.600Z,60.34
2023-02-06T00:31:15.534Z,60.75
2023-02-06T00:33:43.388Z,61.10
2023-02-06T00:36:10.170Z,60.72
2023-02-06T00:38:38.009Z,61.14
2023-02-06T00:41:05.510Z,61.04
2023-02-06T00:43:32.399Z,61.03
2023-02-06T00:45:59.205Z,61.84
2023-02-06T00:48:25.989Z,61.71
2023-02-06T00:50:53.693Z,62.27
2023-02-06T00:53:20.755Z,62.01
2023-02-06T00:55:47.419Z,62.49
2023-02-06T00:58:14.322Z,62.54
2023-02-06T01:00:43.827Z,62.46
2023-02-06T01:03:11.022Z,61.64
2023-02-06T01:05:37.953Z,61.18
2023-02-06T01:08:04.973Z,61.02
2023-02-06T01:10:32.408Z,60.37
2023-02-06T01:12:59.717Z,60.68
2023-02-06T01:15:26.913Z,61.04
2023-02-06T01:17:53.775Z,61.12
2023-02-06T01:20:21.574Z,61.85
2023-02-06T01:22:48.332Z,61.91
2023-02-06T01:25:15.011Z,61.81
2023-02-06T01:27:41.782Z,60.84
2023-02-06T01:30:09.252Z,61.23
2023-02-06T01:32:37.975Z,60.76
2023-02-06T01:35:06.897Z,61.06
2023-02-06T01:37:35.357Z,61.76
2023-02-06T01:40:02.630Z,61.82
2023-02-06T01:42:29.367Z,61.11
2023-02-06T01:45:26.837Z,60.82
2023-02-06T01:48:02.047Z,60.82
2023-02-06T01:50:32.402Z,60.59
2023-02-06T01:52:59.380Z,60.74
2023-02-06T01:55:26.238Z,61.25
2023-02-06T01:57:52.966Z,61.26
2023-02-06T02:00:20.839Z,61.12
2023-02-06T02:02:49.016Z,60.82
2023-02-06T02:05:17.513Z,61.20
2023-02-06T02:08:00.833Z,61.24
2023-02-06T02:10:30.016Z,60.99
2023-02-06T02:12:56.858Z,61.11
2023-02-06T02:15:35.338Z,61.25
2023-02-06T02:18:27.630Z,61.67
2023-02-06T02:21:00.200Z,61.76
2023-02-06T02:23:40.721Z,60.79
2023-02-06T02:26:32.430Z,60.83
2023-02-06T02:29:26.869Z,61.36
2023-02-06T02:32:03.903Z,61.59
2023-02-06T02:34:45.756Z,61.30
2023-02-06T02:37:34.117Z,61.27
2023-02-06T02:40:16.894Z,61.56
2023-02-06T02:42:59.393Z,61.92
2023-02-06T02:45:33.459Z,61.95
2023-02-06T02:48:07.245Z,61.65
2023-02-06T02:50:36.031Z,61.29
2023-02-06T02:53:03.605Z,61.77
2023-02-06T02:55:30.654Z,62.25
2023-02-06T02:58:07.941Z,62.39
2023-02-06T03:00:41.301Z,61.92
2023-02-06T03:03:10.891Z,62.19
2023-02-06T03:05:46.102Z,62.52
2023-02-06T03:08:29.096Z,62.15
2023-02-06T03:11:16.066Z,62.04
2023-02-06T03:13:55.584Z,61.80
2023-02-06T03:16:36.949Z,62.62
2023-02-06T03:19:06.374Z,61.98
2023-02-06T03:21:36.895Z,62.41
2023-02-06T03:24:10.051Z,62.96
2023-02-06T03:26:38.285Z,62.11
2023-02-06T03:29:09.270Z,61.94
2023-02-06T03:31:58.160Z,62.91
2023-02-06T03:34:42.838Z,62.76
2023-02-06T03:37:10.553Z,62.48
2023-02-06T03:39:38.005Z,62.62
2023-02-06T03:42:06.085Z,62.43
2023-02-06T03:44:41.938Z,63.27
2023-02-06T03:47:11.227Z,62.91
2023-02-06T03:49:41.294Z,62.77
2023-02-06T03:52:13.156Z,63.06
2023-02-06T03:54:45.846Z,62.95
2023-02-06T03:57:19.305Z,62.34
2023-02-06T03:59:47.156Z,62.64
2023-02-06T04:02:16.717Z,62.73
2023-02-06T04:04:45.434Z,62.10
2023-02-06T04:07:24.777Z,62.63
2023-02-06T04:09:52.429Z,63.18
2023-02-06T04:12:19.738Z,63.86
2023-02-06T04:14:46.970Z,63.12
2023-02-06T04:17:18.739Z,63.83
2023-02-06T04:19:50.615Z,62.92
2023-02-06T04:22:17.519Z,63.24
2023-02-06T04:24:44.135Z,64.07
2023-02-06T04:27:12.928Z,63.25
2023-02-06T04:29:39.819Z,63.31
2023-02-06T04:32:06.992Z,63.72
2023-02-06T04:34:35.603Z,63.11
2023-02-06T04:37:03.965Z,63.33
2023-02-06T04:39:30.926Z,62.78
2023-02-06T04:41:57.653Z,62.69
2023-02-06T04:44:24.536Z,63.89
2023-02-06T04:46:51.546Z,62.79
2023-02-06T04:49:18.247Z,63.25
2023-02-06T04:51:44.862Z,63.21
2023-02-06T04:54:17.261Z,63.02
2023-02-06T04:56:44.962Z,62.93
2023-02-06T04:59:11.826Z,63.43
2023-02-06T05:01:39.066Z,62.85
2023-02-06T05:04:05.746Z,62.46
2023-02-06T05:06:32.542Z,61.97
2023-02-06T05:09:00.004Z,62.43
2023-02-06T05:11:27.031Z,62.41
2023-02-06T05:13:53.619Z,62.63
2023-02-06T05:16:20.529Z,62.03
2023-02-06T05:18:47.618Z,61.53
2023-02-06T05:21:15.200Z,62.38
2023-02-06T05:23:41.817Z,61.70
2023-02-06T05:26:08.514Z,62.10
2023-02-06T05:28:35.166Z,61.43
2023-02-06T05:31:05.126Z,62.25
2023-02-06T05:33:31.909Z,61.24
2023-02-06T05:36:07.014Z,61.57
2023-02-06T05:38:34.383Z,60.92
2023-02-06T05:41:01.034Z,61.82
2023-02-06T05:43:27.926Z,61.89
2023-02-06T05:45:54.645Z,62.33
2023-02-06T05:48:21.396Z,61.05
2023-02-06T05:50:51.012Z,61.09
2023-02-06T05:53:17.951Z,60.78
2023-02-06T05:55:44.534Z,60.39
2023-02-06T05:58:11.683Z,61.82
2023-02-06T06:00:38.575Z,60.86
2023-02-06T06:03:05.541Z,60.55
2023-02-06T06:05:32.166Z,61.25
2023-02-06T06:07:58.940Z,60.30
2023-02-06T06:10:25.545Z,60.39
2023-02-06T06:12:52.228Z,60.96
2023-02-06T06:15:18.999Z,61.00
2023-02-06T06:17:45.695Z,60.50
2023-02-06T06:20:12.445Z,61.62
2023-02-06T06:22:39.313Z,61.92
2023-02-06T06:25:06.858Z,61.02
2023-02-06T06:27:34.007Z,61.61
2023-02-06T06:30:00.723Z,60.67
2023-02-06T06:32:27.611Z,60.83
2023-02-06T06:34:54.196Z,61.70
2023-02-06T06:37:20.946Z,61.62
2023-02-06T06:39:47.603Z,61.78
2023-02-06T06:42:14.264Z,61.50
2023-02-06T06:44:40.883Z,62.04
2023-02-06T06:47:07.608Z,61.97
2023-02-06T06:49:34.302Z,61.77
2023-02-06T06:52:00.966Z,61.65
2023-02-06T06:54:27.664Z,60.65
2023-02-06T06:56:54.308Z,60.98
2023-02-06T06:59:20.898Z,61.52
2023-02-06T07:01:48.974Z,60.63
2023-02-06T07:04:15.573Z,60.86
2023-02-06T07:06:42.286Z,61.09
2023-02-06T07:09:08.837Z,60.17
2023-02-06T07:11:35.487Z,59.20
2023-02-06T07:14:02.519Z,59.57
2023-02-06T07:16:29.236Z,60.74
2023-02-06T07:18:55.818Z,60.88
2023-02-06T07:21:22.926Z,61.38
2023-02-06T07:23:49.620Z,60.94
2023-02-06T07:26:16.364Z,61.63
2023-02-06T07:28:43.163Z,61.78
2023-02-06T07:31:10.031Z,61.55
2023-02-06T07:33:36.819Z,62.04
2023-02-06T07:36:04.315Z,61.95
2023-02-06T07:38:31.275Z,60.56
2023-02-06T07:41:02.453Z,59.66
2023-02-06T07:43:29.606Z,60.49
2023-02-06T07:46:01.232Z,61.25
2023-02-06T07:48:29.124Z,62.01
2023-02-06T07:50:56.189Z,61.98
2023-02-06T07:53:23.180Z,62.49
2023-02-06T07:55:49.856Z,61.11
2023-02-06T07:58:16.850Z,60.98
2023-02-06T08:00:45.698Z,60.30
2023-02-06T08:03:12.629Z,61.42
2023-02-06T08:05:39.897Z,61.06
2023-02-06T08:08:07.421Z,59.94
2023-02-06T08:10:34.038Z,58.82
2023-02-06T08:13:00.840Z,57.97
2023-02-06T08:15:27.576Z,57.52
2023-02-06T08:17:54.335Z,58.55
2023-02-06T08:20:21.023Z,59.08
2023-02-06T08:22:47.811Z,57.43
2023-02-06T08:25:14.491Z,57.49
2023-02-06T08:27:41.248Z,57.40
2023-02-06T08:30:08.388Z,56.51
2023-02-06T08:32:35.546Z,56.46
2023-02-06T08:35:02.388Z,56.72
2023-02-06T08:37:29.184Z,57.42
2023-02-06T08:39:55.782Z,56.81
2023-02-06T08:42:24.327Z,56.64
2023-02-06T08:44:53.639Z,56.34
2023-02-06T08:47:20.413Z,57.33
2023-02-06T08:49:50.683Z,56.58
2023-02-06T08:52:18.011Z,56.05
2023-02-06T08:54:44.684Z,56.52
2023-02-06T08:57:12.869Z,56.72
2023-02-06T08:59:39.510Z,56.28
2023-02-06T09:02:08.328Z,56.08
2023-02-06T09:04:37.770Z,54.74
2023-02-06T09:07:04.534Z,55.53
2023-02-06T09:09:31.095Z,54.27
2023-02-06T09:12:02.269Z,54.75
2023-02-06T09:14:29.446Z,55.13
2023-02-06T09:16:58.155Z,54.28
2023-02-06T09:19:26.066Z,55.57
2023-02-06T09:21:53.027Z,55.96
2023-02-06T09:24:20.185Z,56.94
2023-02-06T09:26:58.957Z,56.51
2023-02-06T09:29:31.624Z,56.31
2023-02-06T09:31:58.727Z,56.82
2023-02-06T09:34:26.087Z,55.71
2023-02-06T09:36:56.807Z,56.03
2023-02-06T09:39:24.460Z,56.58
2023-02-06T09:41:55.193Z,55.02
2023-02-06T09:44:24.625Z,54.70
2023-02-06T09:46:57.515Z,55.94
2023-02-06T09:49:35.877Z,54.08
2023-02-06T09:52:17.886Z,54.71
2023-02-06T09:54:48.285Z,53.95
2023-02-06T09:57:20.461Z,54.03
2023-02-06T10:00:11.769Z,53.57
2023-02-06T10:03:06.411Z,54.64
2023-02-06T10:05:39.357Z,54.49
2023-02-06T10:08:06.035Z,54.00
2023-02-06T10:10:42.384Z,54.09
2023-02-06T10:13:29.079Z,54.85
2023-02-06T10:16:12.108Z,54.03
2023-02-06T10:18:52.723Z,54.47
2023-02-06T10:21:35.663Z,55.10
2023-02-06T10:24:21.644Z,53.47
2023-02-06T10:26:50.133Z,53.74
2023-02-06T10:29:36.362Z,54.64
2023-02-06T10:32:05.883Z,54.28
2023-02-06T10:34:51.798Z,54.48
2023-02-06T10:37:18.383Z,55.54
2023-02-06T10:40:22.497Z,55.09
2023-02-06T10:43:10.645Z,55.04
2023-02-06T10:46:19.804Z,55.31
2023-02-06T10:49:05.386Z,55.15
2023-02-06T10:51:35.813Z,54.62
2023-02-06T10:54:06.519Z,55.05
2023-02-06T10:56:46.387Z,54.81
2023-02-06T10:59:25.055Z,54.62
2023-02-06T11:02:00.477Z,54.75
2023-02-06T11:04:31.210Z,54.14
2023-02-06T11:07:01.697Z,53.29
2023-02-06T11:09:28.432Z,53.54
2023-02-06T11:11:58.467Z,53.65
2023-02-06T11:14:30.612Z,53.46
2023-02-06T11:17:00.836Z,52.53
2023-02-06T11:19:31.827Z,52.79
2023-02-06T11:22:04.533Z,52.67
2023-02-06T11:24:31.302Z,52.93
2023-02-06T11:27:01.268Z,52.43
2023-02-06T11:29:29.551Z,52.75
2023-02-06T11:32:01.988Z,52.16
2023-02-06T11:34:50.337Z,52.91
2023-02-06T11:37:34.251Z,53.79
2023-02-06T11:40:19.820Z,52.88
2023-02-06T11:42:49.056Z,52.76
2023-02-06T11:45:25.607Z,53.73
2023-02-06T11:47:52.416Z,52.65
2023-02-06T11:50:28.822Z,53.12
2023-02-06T11:53:11.088Z,52.96
2023-02-06T11:55:39.954Z,53.07
2023-02-06T11:58:12.789Z,53.15
2023-02-06T12:00:42.320Z,52.43
2023-02-06T12:03:34.879Z,52.69
2023-02-06T12:06:16.578Z,52.49
2023-02-06T12:08:54.982Z,52.74
2023-02-06T12:11:53.833Z,53.19
2023-02-06T12:14:29.544Z,53.72
2023-02-06T12:16:57.421Z,52.61
2023-02-06T12:19:31.696Z,52.92
2023-02-06T12:22:07.021Z,52.86
2023-02-06T12:24:42.285Z,53.13
2023-02-06T12:27:22.088Z,52.38
2023-02-06T12:30:05.959Z,52.22
2023-02-06T12:32:39.362Z,52.99
2023-02-06T12:35:49.639Z,53.92
2023-02-06T12:38:48.208Z,53.88
2023-02-06T12:41:23.939Z,53.64
2023-02-06T12:43:59.701Z,52.65
2023-02-06T12:46:28.282Z,53.38
2023-02-06T12:49:01.221Z,52.99
2023-02-06T12:51:54.621Z,53.10
2023-02-06T12:54:33.696Z,53.42
2023-02-06T12:57:18.759Z,53.13
2023-02-06T13:00:22.687Z,53.43
2023-02-06T13:03:01.731Z,54.44
2023-02-06T13:05:41.803Z,53.64
2023-02-06T13:08:23.070Z,54.20
2023-02-06T13:11:04.742Z,53.81
2023-02-06T13:13:36.734Z,53.59
2023-02-06T13:16:04.674Z,53.84
2023-02-06T13:18:41.825Z,53.53
2023-02-06T13:21:22.606Z,54.32
2023-02-06T13:23:59.343Z,53.17
2023-02-06T13:26:53.213Z,53.20
2023-02-06T13:29:27.772Z,54.48
2023-02-06T13:32:14.999Z,53.63
2023-02-06T13:34:44.741Z,54.00
2023-02-06T13:37:47.283Z,54.15
2023-02-06T13:40:32.257Z,53.95
2023-02-06T13:43:10.136Z,53.91
2023-02-06T13:46:00.522Z,54.51
2023-02-06T13:49:01.749Z,54.16
2023-02-06T13:51:51.755Z,53.57
2023-02-06T13:54:39.952Z,53.82
2023-02-06T13:57:14.342Z,54.08
2023-02-06T13:59:49.272Z,54.29
2023-02-06T14:02:37.244Z,54.00
2023-02-06T14:05:10.856Z,55.08
2023-02-06T14:08:01.772Z,55.53
2023-02-06T14:11:14.329Z,53.91
2023-02-06T14:14:14.443Z,54.70
2023-02-06T14:16:58.837Z,54.98
2023-02-06T14:19:41.494Z,54.72
2023-02-06T14:22:14.163Z,55.29
2023-02-06T14:25:08.734Z,55.04
2023-02-06T14:27:51.324Z,56.10
2023-02-06T14:30:37.187Z,55.25
2023-02-06T14:33:24.575Z,54.77
2023-02-06T14:36:15.681Z,54.47
2023-02-06T14:38:56.802Z,54.51
2023-02-06T14:41:28.855Z,54.38
2023-02-06T14:43:55.903Z,55.33
2023-02-06T14:46:22.826Z,54.79
2023-02-06T14:48:58.167Z,55.16
2023-02-06T14:51:40.340Z,54.38
2023-02-06T14:54:31.734Z,54.76
2023-02-06T14:57:04.259Z,54.82
2023-02-06T14:59:31.917Z,55.12
2023-02-06T15:02:11.398Z,54.49
2023-02-06T15:04:47.265Z,55.46
2023-02-06T15:07:28.539Z,54.41
2023-02-06T15:10:06.264Z,55.14
2023-02-06T15:12:34.278Z,55.00
2023-02-06T15:15:18.135Z,55.58
2023-02-06T15:17:59.614Z,55.51
2023-02-06T15:20:33.880Z,55.11
2023-02-06T15:23:17.014Z,54.99
2023-02-06T15:25:47.998Z,54.78
2023-02-06T15:28:21.508Z,55.58
2023-02-06T15:31:00.578Z,55.61
2023-02-06T15:33:33.777Z,56.48
2023-02-06T15:36:03.305Z,56.25
2023-02-06T15:38:32.984Z,55.93
2023-02-06T15:41:03.671Z,56.42
2023-02-06T15:43:30.915Z,56.40
2023-02-06T15:46:01.038Z,56.56
2023-02-06T15:48:36.654Z,56.12
2023-02-06T15:51:18.552Z,55.79
2023-02-06T15:53:48.345Z,56.07
2023-02-06T15:56:33.477Z,56.91
2023-02-06T15:59:05.424Z,56.12
2023-02-06T16:01:37.286Z,56.04
2023-02-06T16:04:24.185Z,56.28
2023-02-06T16:07:12.548Z,56.35
2023-02-06T16:09:43.453Z,55.44
2023-02-06T16:12:10.443Z,55.72
2023-02-06T16:14:40.169Z,56.09
2023-02-06T16:17:09.603Z,56.42
2023-02-06T16:19:50.451Z,56.50
2023-02-06T16:22:32.757Z,57.07
2023-02-06T16:25:22.280Z,57.03
2023-02-06T16:27:51.311Z,56.81
2023-02-06T16:30:34.517Z,57.11
2023-02-06T16:33:37.407Z,56.82
2023-02-06T16:36:04.639Z,57.31
2023-02-06T16:38:31.529Z,57.38
2023-02-06T16:40:59.018Z,57.64
2023-02-06T16:43:30.578Z,57.13
2023-02-06T16:46:00.218Z,56.74
2023-02-06T16:48:27.093Z,57.52
2023-02-06T16:50:53.675Z,58.03
2023-02-06T16:53:23.299Z,58.84
2023-02-06T16:55:50.762Z,58.14
2023-02-06T16:58:24.037Z,58.31
2023-02-06T17:00:51.927Z,58.18
2023-02-06T17:03:18.877Z,58.19
2023-02-06T17:05:47.304Z,58.17
2023-02-06T17:08:22.431Z,57.90
2023-02-06T17:10:49.795Z,58.09
2023-02-06T17:13:19.785Z,58.41
2023-02-06T17:15:47.430Z,59.36
2023-02-06T17:18:16.731Z,58.49
2023-02-06T17:20:46.332Z,59.02
2023-02-06T17:23:14.199Z,59.09
2023-02-06T17:25:42.990Z,59.07
2023-02-06T17:28:16.396Z,60.07
2023-02-06T17:30:44.705Z,59.44
2023-02-06T17:33:15.962Z,60.01
2023-02-06T17:35:43.588Z,60.33
2023-02-06T17:38:10.397Z,59.75
2023-02-06T17:40:40.029Z,60.14
2023-02-06T17:43:07.372Z,60.60
2023-02-06T17:45:37.827Z,59.83
2023-02-06T17:48:05.355Z,60.16
2023-02-06T17:50:32.245Z,60.35
2023-02-06T17:53:00.293Z,61.18
2023-02-06T17:55:28.039Z,60.39
2023-02-06T17:57:55.626Z,61.08
2023-02-06T18:00:23.908Z,60.72
2023-02-06T18:02:51.819Z,60.72
2023-02-06T18:05:19.427Z,60.71
2023-02-06T18:07:49.530Z,60.45
2023-02-06T18:10:20.861Z,60.81
2023-02-06T18:12:47.690Z,61.07
2023-02-06T18:15:15.423Z,60.85
2023-02-06T18:17:43.040Z,60.92
2023-02-06T18:20:11.716Z,60.23
2023-02-06T18:22:41.541Z,60.73
2023-02-06T18:25:10.614Z,59.94
2023-02-06T18:27:38.357Z,60.27
2023-02-06T18:30:05.381Z,60.77
2023-02-06T18:32:33.018Z,60.63
2023-02-06T18:35:00.082Z,61.08
2023-02-06T18:37:26.943Z,61.96
2023-02-06T18:39:55.138Z,61.76
2023-02-06T18:42:40.961Z,61.51
2023-02-06T18:45:08.520Z,61.71
2023-02-06T18:47:35.261Z,61.47
2023-02-06T18:50:02.378Z,62.29
2023-02-06T18:52:29.128Z,62.82
2023-02-06T18:54:56.065Z,62.86
2023-02-06T18:57:23.017Z,62.79
2023-02-06T18:59:49.823Z,63.00
2023-02-06T19:02:16.580Z,63.25
2023-02-06T19:04:43.473Z,62.93
2023-02-06T19:07:11.598Z,62.39
2023-02-06T19:09:38.762Z,62.93
2023-02-06T19:12:05.640Z,62.74
2023-02-06T19:14:32.359Z,62.87
2023-02-06T19:16:59.291Z,63.34
2023-02-06T19:19:26.262Z,61.93
2023-02-06T19:21:52.982Z,60.82
2023-02-06T19:24:19.767Z,62.20
2023-02-06T19:26:46.730Z,62.01
2023-02-06T19:29:16.701Z,62.00
2023-02-06T19:31:43.641Z,62.03
2023-02-06T19:34:10.317Z,62.03
2023-02-06T19:36:38.377Z,61.74
2023-02-06T19:39:09.270Z,61.70
2023-02-06T19:41:36.123Z,62.14
2023-02-06T19:44:10.302Z,62.38
2023-02-06T19:46:37.837Z,62.86
2023-02-06T19:49:06.287Z,63.96
2023-02-06T19:51:36.337Z,63.40
2023-02-06T19:54:03.769Z,63.55
2023-02-06T19:56:34.657Z,63.20
2023-02-06T19:59:05.108Z,63.70
2023-02-06T20:01:32.151Z,62.71
2023-02-06T20:04:00.492Z,62.76
2023-02-06T20:06:29.498Z,62.96
2023-02-06T20:08:57.054Z,62.43
2023-02-06T20:11:24.033Z,63.12
2023-02-06T20:13:55.542Z,63.89
2023-02-06T20:16:25.546Z,64.39
2023-02-06T20:18:53.029Z,64.10
2023-02-06T20:21:32.718Z,63.44
2023-02-06T20:24:01.650Z,63.91
2023-02-06T20:26:33.104Z,64.13
2023-02-06T20:29:00.420Z,64.44
2023-02-06T20:31:28.056Z,65.03
2023-02-06T20:33:55.611Z,64.48
2023-02-06T20:36:24.659Z,63.87
2023-02-06T20:38:54.262Z,63.85
2023-02-06T20:41:23.332Z,64.48
2023-02-06T20:43:50.107Z,64.85
2023-02-06T20:46:21.396Z,64.92
2023-02-06T20:48:54.249Z,64.63
2023-02-06T20:51:21.042Z,64.79
2023-02-06T20:53:47.665Z,64.61
2023-02-06T20:56:15.531Z,64.59
2023-02-06T20:58:42.913Z,64.34
2023-02-06T21:01:18.238Z,64.44
2023-02-06T21:03:46.641Z,64.40
2023-02-06T21:06:14.274Z,64.74
2023-02-06T21:08:42.041Z,63.76
2023-02-06T21:11:09.200Z,63.03
2023-02-06T21:13:36.176Z,62.59
2023-02-06T21:16:02.894Z,62.50
2023-02-06T21:18:32.081Z,61.98
2023-02-06T21:21:09.377Z,62.14
2023-02-06T21:23:41.193Z,62.05
2023-02-06T21:26:10.119Z,61.38
2023-02-06T21:28:38.270Z,61.79
2023-02-06T21:31:12.003Z,62.42
2023-02-06T21:33:38.969Z,63.51
2023-02-06T21:36:07.625Z,63.18
2023-02-06T21:38:36.257Z,63.63
2023-02-06T21:41:13.962Z,63.99
2023-02-06T21:43:41.570Z,64.38
2023-02-06T21:46:09.754Z,64.03
2023-02-06T21:48:36.530Z,63.74
2023-02-06T21:51:14.928Z,63.83
2023-02-06T21:53:43.400Z,64.94
2023-02-06T21:56:30.340Z,64.69
2023-02-06T21:58:57.645Z,64.85
2023-02-06T22:01:29.876Z,64.50
2023-02-06T22:03:57.301Z,64.30
2023-02-06T22:06:24.175Z,65.09
2023-02-06T22:08:52.500Z,65.57
2023-02-06T22:11:28.552Z,67.03
2023-02-06T22:14:01.076Z,67.83
2023-02-06T22:16:28.385Z,68.24
2023-02-06T22:18:55.874Z,69.42
2023-02-06T22:21:25.532Z,69.94
2023-02-06T22:23:55.388Z,69.92
2023-02-06T22:26:22.137Z,70.01
2023-02-06T22:28:49.286Z,70.54
2023-02-06T22:31:21.882Z,69.64
2023-02-06T22:33:49.107Z,70.39
2023-02-06T22:36:18.974Z,71.27
2023-02-06T22:38:47.161Z,72.05
2023-02-06T22:41:16.340Z,72.07
2023-02-06T22:43:44.611Z,73.37
2023-02-06T22:46:21.991Z,73.15
2023-02-06T22:48:49.099Z,75.00
2023-02-06T22:51:16.027Z,75.56
2023-02-06T22:53:43.068Z,76.19
2023-02-06T22:56:29.349Z,76.43
2023-02-06T22:59:05.306Z,75.87
2023-02-06T23:01:39.629Z,76.51
2023-02-06T23:04:08.718Z,77.72
2023-02-06T23:06:36.011Z,78.14
2023-02-06T23:09:05.378Z,76.35
2023-02-06T23:11:32.260Z,75.29
2023-02-06T23:14:02.211Z,75.43
2023-02-06T23:16:30.693Z,75.55
2023-02-06T23:18:57.476Z,74.73
2023-02-06T23:21:25.758Z,71.46
2023-02-06T23:23:54.972Z,70.47
2023-02-06T23:26:21.729Z,71.22
2023-02-06T23:28:48.480Z,70.06
2023-02-06T23:31:15.369Z,71.06
2023-02-06T23:33:42.255Z,69.98
2023-02-06T23:36:14.420Z,70.01
2023-02-06T23:38:42.045Z,67.65
2023-02-06T23:41:18.315Z,69.06
2023-02-06T23:43:50.398Z,68.93
2023-02-06T23:46:17.536Z,68.69
2023-02-06T23:48:44.208Z,67.22
2023-02-06T23:51:11.023Z,66.65
2023-02-06T23:53:37.971Z,66.13
2023-02-06T23:56:23.134Z,66.45
2023-02-06T23:58:50.705Z,66.09
